createdAt,value
2022-11-23T00:00:35.068Z,2.69
2022-11-23T00:03:24.350Z,2.91
2022-11-23T00:05:54.847Z,2.90
2022-11-23T00:08:24.318Z,2.83
2022-11-23T00:10:53.466Z,2.75
2022-11-23T00:13:22.834Z,2.61
2022-11-23T00:15:52.030Z,2.73
2022-11-23T00:18:21.324Z,2.43
2022-11-23T00:20:50.441Z,2.52
2022-11-23T00:23:21.201Z,2.52
2022-11-23T00:25:50.298Z,2.48
2022-11-23T00:28:19.633Z,2.62
2022-11-23T00:30:51.274Z,2.51
2022-11-23T00:33:20.735Z,2.52
2022-11-23T00:35:49.865Z,2.57
2022-11-23T00:38:20.718Z,2.67
2022-11-23T00:40:51.272Z,2.63
2022-11-23T00:43:20.672Z,2.70
2022-11-23T00:45:51.092Z,2.55
2022-11-23T00:48:20.362Z,2.52
2022-11-23T00:50:49.581Z,2.65
2022-11-23T00:53:20.362Z,2.78
2022-11-23T00:55:53.631Z,2.86
2022-11-23T00:58:23.021Z,2.45
2022-11-23T01:01:00.801Z,2.58
2022-11-23T01:03:31.320Z,2.43
2022-11-23T01:06:06.592Z,2.46
2022-11-23T01:08:37.527Z,2.76
2022-11-23T01:11:09.281Z,2.76
2022-11-23T01:13:39.218Z,2.53
2022-11-23T01:16:12.026Z,2.44
2022-11-23T01:18:41.460Z,2.56
2022-11-23T01:21:10.615Z,2.63
2022-11-23T01:23:43.416Z,2.62
2022-11-23T01:26:13.451Z,2.48
2022-11-23T01:28:42.832Z,2.35
2022-11-23T01:31:13.974Z,2.47
2022-11-23T01:33:46.736Z,2.73
2022-11-23T01:36:18.268Z,2.86
2022-11-23T01:38:50.121Z,2.67
2022-11-23T01:41:22.140Z,2.76
2022-11-23T01:43:52.030Z,2.65
2022-11-23T01:46:21.598Z,2.76
2022-11-23T01:48:54.335Z,2.65
2022-11-23T01:51:30.229Z,2.64
2022-11-23T01:54:04.561Z,2.58
2022-11-23T01:56:38.922Z,2.70
2022-11-23T01:59:12.277Z,2.65
2022-11-23T02:01:41.401Z,2.61
2022-11-23T02:04:14.396Z,2.68
2022-11-23T02:06:49.160Z,2.58
2022-11-23T02:09:21.297Z,2.60
2022-11-23T02:11:50.430Z,2.85
2022-11-23T02:14:23.348Z,2.76
2022-11-23T02:16:56.547Z,2.66
2022-11-23T02:19:37.413Z,2.73
2022-11-23T02:22:13.605Z,2.68
2022-11-23T02:24:50.705Z,2.68
2022-11-23T02:27:22.486Z,2.69
2022-11-23T02:29:53.628Z,2.66
2022-11-23T02:32:24.960Z,2.51
2022-11-23T02:34:58.547Z,2.48
2022-11-23T02:37:27.708Z,2.77
2022-11-23T02:40:00.922Z,2.82
2022-11-23T02:42:32.973Z,2.66
2022-11-23T02:45:10.123Z,2.56
2022-11-23T02:47:39.626Z,2.62
2022-11-23T02:50:11.756Z,2.64
2022-11-23T02:52:41.511Z,2.71
2022-11-23T02:55:11.829Z,2.77
2022-11-23T02:57:42.323Z,2.65
2022-11-23T03:00:14.259Z,2.71
2022-11-23T03:02:45.046Z,2.85
2022-11-23T03:05:14.650Z,2.77
2022-11-23T03:07:44.016Z,2.71
2022-11-23T03:10:15.410Z,2.85
2022-11-23T03:12:47.703Z,2.77
2022-11-23T03:15:17.352Z,2.55
2022-11-23T03:17:46.634Z,2.61
2022-11-23T03:20:18.734Z,2.58
2022-11-23T03:22:51.396Z,2.73
2022-11-23T03:25:22.581Z,2.71
2022-11-23T03:27:56.578Z,2.54
2022-11-23T03:35:39.033Z,2.66
2022-11-23T03:38:23.855Z,2.80
2022-11-23T03:40:54.533Z,2.88
2022-11-23T03:43:30.689Z,2.87
2022-11-23T03:45:59.948Z,2.62
2022-11-23T03:48:29.348Z,2.89
2022-11-23T03:50:58.573Z,2.80
2022-11-23T03:53:28.041Z,2.79
2022-11-23T03:55:58.278Z,2.76
2022-11-23T03:58:32.112Z,2.76
2022-11-23T04:01:01.998Z,2.80
2022-11-23T04:03:31.527Z,2.79
2022-11-23T04:06:03.220Z,2.78
2022-11-23T04:08:51.028Z,2.73
2022-11-23T04:11:31.140Z,2.72
2022-11-23T04:14:01.970Z,2.69
2022-11-23T04:16:31.605Z,2.79
2022-11-23T04:19:01.149Z,2.70
2022-11-23T04:21:30.294Z,2.70
2022-11-23T04:24:00.731Z,2.58
2022-11-23T04:26:33.125Z,2.63
2022-11-23T04:29:04.079Z,2.48
2022-11-23T04:31:35.548Z,2.43
2022-11-23T04:34:14.886Z,2.62
2022-11-23T04:36:44.600Z,2.64
2022-11-23T04:39:15.860Z,2.53
2022-11-23T04:42:12.356Z,2.31
2022-11-23T04:44:43.369Z,2.46
2022-11-23T04:47:13.061Z,2.48
2022-11-23T04:49:42.589Z,2.61
2022-11-23T04:52:12.412Z,2.40
2022-11-23T04:54:47.645Z,2.32
2022-11-23T04:57:16.883Z,2.57
2022-11-23T04:59:49.394Z,2.31
2022-11-23T05:02:18.667Z,2.42
2022-11-23T05:04:54.264Z,2.34
2022-11-23T05:07:27.184Z,2.51
2022-11-23T05:10:00.666Z,2.30
2022-11-23T05:12:29.738Z,2.39
2022-11-23T05:15:02.265Z,2.50
2022-11-23T05:17:36.944Z,2.24
2022-11-23T05:20:12.404Z,2.52
2022-11-23T05:22:46.401Z,2.39
2022-11-23T05:25:18.960Z,2.23
2022-11-23T05:27:52.221Z,2.28
2022-11-23T05:30:23.217Z,2.42
2022-11-23T05:32:53.103Z,2.30
2022-11-23T05:35:24.351Z,2.31
2022-11-23T05:37:53.793Z,2.15
2022-11-23T05:40:23.553Z,2.10
2022-11-23T05:42:57.914Z,2.26
2022-11-23T05:45:28.961Z,2.06
2022-11-23T05:48:00.877Z,2.27
2022-11-23T05:50:46.674Z,2.42
2022-11-23T05:53:31.940Z,2.35
2022-11-23T05:56:10.121Z,2.30
2022-11-23T05:58:48.690Z,2.27
2022-11-23T06:01:19.644Z,2.35
2022-11-23T06:03:50.587Z,2.30
2022-11-23T06:06:20.526Z,2.21
2022-11-23T06:08:49.725Z,2.05
2022-11-23T06:11:22.817Z,2.16
2022-11-23T06:13:51.930Z,2.21
2022-11-23T06:16:23.300Z,2.21
2022-11-23T06:19:02.840Z,2.24
2022-11-23T06:21:32.457Z,2.10
2022-11-23T06:24:02.578Z,2.32
2022-11-23T06:26:33.946Z,2.28
2022-11-23T06:29:03.236Z,2.40
2022-11-23T06:31:34.560Z,2.41
2022-11-23T06:34:03.988Z,2.16
2022-11-23T06:36:35.456Z,2.40
2022-11-23T06:39:05.158Z,2.32
2022-11-23T06:41:35.204Z,2.50
2022-11-23T06:44:05.480Z,2.52
2022-11-23T06:46:43.756Z,2.72
2022-11-23T06:49:12.788Z,2.65
2022-11-23T06:51:44.398Z,2.56
2022-11-23T06:54:13.721Z,2.34
2022-11-23T06:56:43.957Z,2.32
2022-11-23T06:59:13.645Z,2.32
2022-11-23T07:01:44.668Z,2.33
2022-11-23T07:04:16.028Z,2.41
2022-11-23T07:06:50.408Z,2.40
2022-11-23T07:09:30.023Z,2.30
2022-11-23T07:12:13.127Z,2.43
2022-11-23T07:14:42.289Z,2.50
2022-11-23T07:17:17.393Z,2.40
2022-11-23T07:19:48.453Z,2.34
2022-11-23T07:22:18.069Z,2.39
2022-11-23T07:24:47.298Z,2.38
2022-11-23T07:27:18.513Z,2.44
2022-11-23T07:29:47.882Z,2.51
2022-11-23T07:32:18.561Z,2.51
2022-11-23T07:34:47.784Z,2.46
2022-11-23T07:37:18.136Z,2.41
2022-11-23T07:39:58.518Z,2.46
2022-11-23T07:42:36.842Z,2.54
2022-11-23T07:45:10.474Z,2.43
2022-11-23T07:47:42.880Z,2.44
2022-11-23T07:50:13.809Z,2.40
2022-11-23T07:52:43.135Z,2.56
2022-11-23T07:55:12.148Z,2.75
2022-11-23T07:57:41.427Z,2.74
2022-11-23T08:00:12.223Z,2.54
2022-11-23T08:03:04.169Z,2.56
2022-11-23T08:05:35.723Z,2.48
2022-11-23T08:08:05.537Z,2.46
2022-11-23T08:10:38.771Z,2.01
2022-11-23T08:13:11.385Z,2.29
2022-11-23T08:15:40.507Z,2.55
2022-11-23T08:18:11.639Z,2.37
2022-11-23T08:20:40.973Z,2.46
2022-11-23T08:23:10.394Z,2.73
2022-11-23T08:25:39.693Z,2.86
2022-11-23T08:28:09.124Z,2.62
2022-11-23T08:30:38.335Z,2.54
2022-11-23T08:33:09.650Z,2.74
2022-11-23T08:35:41.342Z,2.42
2022-11-23T08:38:12.356Z,2.65
2022-11-23T08:40:41.632Z,2.70
2022-11-23T08:43:11.013Z,2.72
2022-11-23T08:45:40.289Z,2.71
2022-11-23T08:48:10.450Z,2.82
2022-11-23T08:50:41.149Z,2.80
2022-11-23T08:53:11.338Z,2.90
2022-11-23T08:55:40.718Z,2.83
2022-11-23T08:58:13.321Z,2.65
2022-11-23T09:00:42.690Z,2.63
2022-11-23T09:03:12.031Z,2.70
2022-11-23T09:05:42.591Z,2.89
2022-11-23T09:08:12.068Z,2.59
2022-11-23T09:10:41.258Z,2.85
2022-11-23T09:13:10.757Z,3.03
2022-11-23T09:15:39.957Z,2.89
2022-11-23T09:18:10.266Z,2.83
2022-11-23T09:20:42.792Z,2.67
2022-11-23T09:23:14.250Z,2.72
2022-11-23T09:25:47.814Z,2.69
2022-11-23T09:28:19.584Z,2.68
2022-11-23T09:30:48.960Z,2.76
2022-11-23T09:33:18.362Z,2.95
2022-11-23T09:35:49.031Z,2.91
2022-11-23T09:38:18.426Z,2.66
2022-11-23T09:40:47.611Z,2.91
2022-11-23T09:43:47.934Z,2.90
2022-11-23T09:46:25.971Z,2.74
2022-11-23T09:49:10.785Z,2.75
2022-11-23T09:51:43.339Z,2.74
2022-11-23T09:54:29.982Z,2.77
2022-11-23T09:57:01.967Z,2.91
2022-11-23T09:59:42.124Z,2.78
2022-11-23T10:02:20.876Z,2.75
2022-11-23T10:04:52.059Z,2.89
2022-11-23T10:07:48.587Z,2.98
2022-11-23T10:10:35.402Z,2.88
2022-11-23T10:13:17.623Z,2.63
2022-11-23T10:16:01.974Z,2.69
2022-11-23T10:18:44.033Z,2.91
2022-11-23T10:21:24.594Z,2.71
2022-11-23T10:24:05.557Z,2.82
2022-11-23T10:26:38.890Z,2.85
2022-11-23T10:29:14.968Z,2.98
2022-11-23T10:31:54.027Z,2.66
2022-11-23T10:34:39.276Z,2.84
2022-11-23T10:37:13.125Z,2.90
2022-11-23T10:39:43.812Z,2.86
2022-11-23T10:42:23.919Z,2.97
2022-11-23T10:44:55.662Z,3.03
2022-11-23T10:47:41.039Z,2.99
2022-11-23T10:50:25.892Z,3.12
2022-11-23T10:52:58.188Z,3.10
2022-11-23T10:55:31.446Z,2.99
2022-11-23T10:58:01.853Z,3.22
2022-11-23T11:00:31.785Z,3.07
2022-11-23T11:03:03.494Z,2.94
2022-11-23T11:08:29.041Z,2.95
2022-11-23T11:11:06.221Z,3.06
2022-11-23T11:13:43.869Z,3.30
2022-11-23T11:16:22.739Z,3.26
2022-11-23T11:18:52.413Z,3.45
2022-11-23T11:21:23.763Z,3.43
2022-11-23T11:23:55.794Z,3.39
2022-11-23T11:26:28.208Z,3.47
2022-11-23T11:28:59.274Z,3.38
2022-11-23T11:31:43.569Z,3.45
2022-11-23T11:34:24.927Z,2.93
2022-11-23T11:37:05.482Z,3.33
2022-11-23T11:39:43.532Z,3.19
2022-11-23T11:42:21.064Z,3.26
2022-11-23T11:44:55.607Z,2.92
2022-11-23T11:47:32.319Z,3.26
2022-11-23T11:50:12.411Z,3.47
2022-11-23T11:52:43.871Z,3.59
2022-11-23T11:55:17.712Z,3.59
2022-11-23T11:57:51.284Z,3.26
2022-11-23T12:00:22.003Z,3.22
2022-11-23T12:03:06.620Z,3.25
2022-11-23T12:05:43.413Z,3.27
2022-11-23T12:08:17.700Z,3.23
2022-11-23T12:10:51.984Z,3.08
2022-11-23T12:13:25.897Z,3.14
2022-11-23T12:16:03.601Z,3.43
2022-11-23T12:18:55.460Z,3.24
2022-11-23T12:21:55.697Z,3.22
2022-11-23T12:24:41.552Z,3.13
2022-11-23T12:27:21.200Z,3.06
2022-11-23T12:30:05.310Z,3.16
2022-11-23T12:32:44.995Z,3.37
2022-11-23T12:35:40.429Z,3.14
2022-11-23T12:38:21.576Z,2.98
2022-11-23T12:41:16.373Z,2.91
2022-11-23T12:44:05.048Z,2.97
2022-11-23T12:46:45.999Z,3.06
2022-11-23T12:49:36.128Z,3.04
2022-11-23T12:52:21.879Z,2.93
2022-11-23T12:55:00.702Z,3.04
2022-11-23T12:57:40.315Z,2.92
2022-11-23T13:00:17.413Z,3.04
2022-11-23T13:07:26.281Z,2.98
2022-11-23T13:10:25.961Z,2.92
2022-11-23T13:13:21.660Z,2.99
2022-11-23T13:16:16.598Z,2.97
2022-11-23T13:19:17.342Z,2.73
2022-11-23T13:21:51.524Z,2.73
2022-11-23T13:24:29.505Z,2.58
2022-11-23T13:27:43.706Z,2.66
2022-11-23T13:30:35.593Z,2.57
2022-11-23T13:33:35.842Z,3.03
2022-11-23T13:36:15.274Z,2.96
2022-11-23T13:38:48.725Z,2.97
2022-11-23T13:41:57.999Z,2.98
2022-11-23T13:44:30.537Z,2.92
2022-11-23T13:47:08.922Z,3.03
2022-11-23T13:49:42.944Z,2.65
2022-11-23T13:52:27.421Z,2.81
2022-11-23T13:55:05.344Z,2.84
2022-11-23T13:57:36.908Z,2.73
2022-11-23T14:00:43.227Z,2.67
2022-11-23T14:03:48.971Z,2.78
2022-11-23T14:06:33.785Z,2.73
2022-11-23T14:09:12.588Z,2.75
2022-11-23T14:11:52.451Z,2.75
2022-11-23T14:14:24.753Z,2.95
2022-11-23T14:17:25.414Z,2.62
2022-11-23T14:20:20.319Z,2.85
2022-11-23T14:23:05.584Z,2.94
2022-11-23T14:25:50.429Z,2.97
2022-11-23T14:28:35.482Z,2.98
2022-11-23T14:31:19.060Z,2.86
2022-11-23T14:33:55.817Z,2.81
2022-11-23T14:36:36.597Z,2.49
2022-11-23T14:39:47.268Z,2.60
2022-11-23T14:42:22.322Z,2.74
2022-11-23T14:44:52.097Z,2.64
2022-11-23T14:47:28.850Z,2.81
2022-11-23T14:49:58.586Z,2.79
2022-11-23T14:52:30.590Z,2.92
2022-11-23T14:55:02.743Z,2.96
2022-11-23T14:57:41.739Z,2.87
2022-11-23T15:00:28.697Z,2.92
2022-11-23T15:03:04.585Z,2.75
2022-11-23T15:05:47.471Z,2.78
2022-11-23T15:08:21.332Z,2.85
2022-11-23T15:11:01.485Z,2.73
2022-11-23T15:13:42.936Z,2.78
2022-11-23T15:16:15.913Z,2.73
2022-11-23T15:18:46.017Z,2.87
2022-11-23T15:21:26.528Z,2.95
2022-11-23T15:23:58.356Z,2.91
2022-11-23T15:29:35.353Z,2.91
2022-11-23T15:32:36.297Z,2.68
2022-11-23T15:35:08.709Z,2.78
2022-11-23T15:37:44.068Z,2.86
2022-11-23T15:40:18.353Z,2.94
2022-11-23T15:42:48.634Z,2.71
2022-11-23T15:45:39.240Z,2.74
2022-11-23T15:48:16.167Z,2.78
2022-11-23T15:50:50.624Z,2.76
2022-11-23T15:53:20.593Z,2.75
2022-11-23T15:55:51.428Z,2.70
2022-11-23T15:58:22.624Z,2.69
2022-11-23T16:00:56.971Z,2.63
2022-11-23T16:03:33.544Z,2.45
2022-11-23T16:06:29.475Z,2.82
2022-11-23T16:08:58.652Z,2.77
2022-11-23T16:11:34.740Z,2.62
2022-11-23T16:14:18.184Z,2.77
2022-11-23T16:17:00.333Z,2.94
2022-11-23T16:19:31.683Z,2.74
2022-11-23T16:22:04.540Z,2.72
2022-11-23T16:24:36.807Z,2.83
2022-11-23T16:27:15.111Z,2.93
2022-11-23T16:29:44.451Z,2.74
2022-11-23T16:32:26.900Z,2.86
2022-11-23T16:34:59.004Z,2.76
2022-11-23T16:37:29.001Z,2.75
2022-11-23T16:39:58.041Z,2.58
2022-11-23T16:42:27.634Z,2.63
2022-11-23T16:44:56.799Z,2.73
2022-11-23T16:47:30.167Z,2.62
2022-11-23T16:49:59.594Z,2.93
2022-11-23T16:52:29.023Z,2.91
2022-11-23T16:54:58.080Z,2.97
2022-11-23T16:57:34.681Z,2.86
2022-11-23T17:00:05.942Z,2.70
2022-11-23T17:02:36.950Z,2.75
2022-11-23T17:05:14.231Z,2.68
2022-11-23T17:07:43.876Z,2.51
2022-11-23T17:10:13.872Z,2.55
2022-11-23T17:12:51.610Z,2.65
2022-11-23T17:15:23.443Z,2.63
2022-11-23T17:17:54.390Z,3.02
2022-11-23T17:20:24.758Z,2.96
2022-11-23T17:23:00.154Z,2.74
2022-11-23T17:25:30.548Z,2.72
2022-11-23T17:28:01.435Z,2.76
2022-11-23T17:30:31.438Z,2.52
2022-11-23T17:33:02.273Z,2.60
2022-11-23T17:35:35.377Z,2.50
2022-11-23T17:38:08.013Z,2.64
2022-11-23T17:40:37.131Z,2.56
2022-11-23T17:43:06.630Z,2.64
2022-11-23T17:45:35.990Z,2.43
2022-11-23T17:48:10.840Z,2.54
2022-11-23T17:50:40.203Z,2.44
2022-11-23T17:53:11.525Z,2.50
2022-11-23T17:55:41.414Z,2.40
2022-11-23T17:58:12.777Z,2.28
2022-11-23T18:00:42.347Z,2.39
2022-11-23T18:03:13.195Z,2.61
2022-11-23T18:05:42.385Z,2.78
2022-11-23T18:08:12.524Z,2.61
2022-11-23T18:10:41.580Z,2.73
2022-11-23T18:13:11.127Z,2.57
2022-11-23T18:15:40.584Z,2.73
2022-11-23T18:18:10.111Z,2.53
2022-11-23T18:20:40.655Z,2.39
2022-11-23T18:23:10.278Z,2.55
2022-11-23T18:25:39.522Z,2.65
2022-11-23T18:28:08.932Z,2.69
2022-11-23T18:30:38.278Z,2.77
2022-11-23T18:33:07.809Z,2.80
2022-11-23T18:35:36.980Z,2.94
2022-11-23T18:38:08.028Z,2.67
2022-11-23T18:40:37.321Z,2.47
2022-11-23T18:43:06.672Z,2.57
2022-11-23T18:45:35.924Z,2.65
2022-11-23T18:48:07.901Z,2.43
2022-11-23T18:50:37.284Z,2.61
2022-11-23T18:53:08.284Z,2.55
2022-11-23T18:55:37.372Z,2.50
2022-11-23T18:58:07.420Z,2.38
2022-11-23T19:00:36.619Z,2.34
2022-11-23T19:03:06.208Z,2.32
2022-11-23T19:05:37.113Z,2.32
2022-11-23T19:08:09.142Z,2.53
2022-11-23T19:10:39.646Z,2.52
2022-11-23T19:13:09.284Z,2.45
2022-11-23T19:15:38.956Z,2.49
2022-11-23T19:18:08.431Z,2.59
2022-11-23T19:20:37.689Z,2.64
2022-11-23T19:23:08.529Z,2.46
2022-11-23T19:25:37.671Z,2.51
2022-11-23T19:28:07.257Z,2.60
2022-11-23T19:30:36.400Z,2.62
2022-11-23T19:33:05.897Z,2.65
2022-11-23T19:35:35.385Z,2.33
2022-11-23T19:38:04.818Z,2.30
2022-11-23T19:40:35.290Z,2.12
2022-11-23T19:43:05.006Z,2.37
2022-11-23T19:45:34.155Z,2.20
2022-11-23T19:48:03.564Z,2.30
2022-11-23T19:50:32.721Z,2.23
2022-11-23T19:53:12.284Z,2.25
2022-11-23T19:55:43.024Z,2.25
2022-11-23T19:58:12.601Z,2.44
2022-11-23T20:00:45.619Z,2.30
2022-11-23T20:03:15.507Z,1.99
2022-11-23T20:05:56.409Z,2.05
2022-11-23T20:08:25.743Z,2.09
2022-11-23T20:10:56.684Z,2.25
2022-11-23T20:13:26.441Z,2.12
2022-11-23T20:15:55.624Z,2.17
2022-11-23T20:18:29.555Z,1.93
2022-11-23T20:20:59.146Z,2.02
2022-11-23T20:23:28.610Z,2.13
2022-11-23T20:25:59.836Z,2.36
2022-11-23T20:28:29.538Z,2.06
2022-11-23T20:31:03.799Z,2.17
2022-11-23T20:33:33.419Z,2.07
2022-11-23T20:36:10.349Z,2.02
2022-11-23T20:38:40.131Z,2.16
2022-11-23T20:41:18.872Z,1.98
2022-11-23T20:43:49.990Z,2.20
2022-11-23T20:46:38.309Z,2.26
2022-11-23T20:49:08.628Z,2.29
2022-11-23T20:51:37.968Z,2.06
2022-11-23T20:54:07.405Z,2.06
2022-11-23T20:56:39.881Z,2.09
2022-11-23T20:59:09.301Z,2.02
2022-11-23T21:01:40.575Z,1.60
2022-11-23T21:04:10.526Z,1.69
2022-11-23T21:06:40.335Z,1.71
2022-11-23T21:09:11.237Z,1.90
2022-11-23T21:11:59.486Z,2.04
2022-11-23T21:14:30.657Z,2.02
2022-11-23T21:17:01.324Z,1.92
2022-11-23T21:19:32.021Z,1.78
2022-11-23T21:22:03.902Z,1.66
2022-11-23T21:24:35.412Z,1.53
2022-11-23T21:27:07.952Z,1.96
2022-11-23T21:29:38.086Z,1.86
2022-11-23T21:32:07.427Z,1.70
2022-11-23T21:34:37.312Z,1.86
2022-11-23T21:37:06.673Z,1.99
2022-11-23T21:39:35.917Z,1.83
2022-11-23T21:42:09.764Z,1.92
2022-11-23T21:44:38.782Z,1.82
2022-11-23T21:47:08.185Z,2.02
2022-11-23T21:49:37.584Z,2.07
2022-11-23T21:52:09.008Z,2.00
2022-11-23T21:54:38.137Z,1.93
2022-11-23T21:57:09.134Z,1.89
2022-11-23T21:59:38.537Z,1.92
2022-11-23T22:02:08.198Z,2.05
2022-11-23T22:04:39.095Z,1.68
2022-11-23T22:07:08.731Z,1.82
2022-11-23T22:09:38.161Z,1.98
2022-11-23T22:12:09.196Z,1.91
2022-11-23T22:14:38.435Z,1.84
2022-11-23T22:17:08.022Z,1.98
2022-11-23T22:19:37.354Z,2.02
2022-11-23T22:22:07.568Z,2.04
2022-11-23T22:24:36.715Z,1.93
2022-11-23T22:27:06.261Z,2.12
2022-11-23T22:29:36.940Z,2.01
2022-11-23T22:32:06.656Z,1.78
2022-11-23T22:34:36.140Z,1.98
2022-11-23T22:37:10.401Z,1.92
2022-11-23T22:39:40.143Z,2.17
2022-11-23T22:42:09.729Z,2.24
2022-11-23T22:44:40.485Z,1.95
2022-11-23T22:47:10.552Z,2.04
2022-11-23T22:49:39.881Z,1.90
2022-11-23T22:52:09.352Z,2.00
2022-11-23T22:54:38.649Z,1.83
2022-11-23T22:57:08.261Z,1.99
2022-11-23T22:59:37.449Z,1.91
2022-11-23T23:02:08.437Z,2.19
2022-11-23T23:04:37.994Z,2.14
2022-11-23T23:07:07.581Z,1.66
2022-11-23T23:09:36.802Z,1.56
2022-11-23T23:12:06.764Z,1.86
2022-11-23T23:14:37.007Z,2.01
2022-11-23T23:17:08.064Z,1.90
2022-11-23T23:19:37.666Z,1.75
2022-11-23T23:22:07.442Z,1.69
2022-11-23T23:24:36.988Z,1.70
2022-11-23T23:27:06.387Z,1.97
2022-11-23T23:29:35.552Z,1.65
2022-11-23T23:32:05.281Z,1.64
2022-11-23T23:34:35.877Z,1.54
2022-11-23T23:37:05.340Z,1.49
2022-11-23T23:39:34.678Z,1.69
2022-11-23T23:42:04.228Z,1.87
2022-11-23T23:44:34.452Z,1.69
2022-11-23T23:47:04.229Z,1.51
2022-11-23T23:49:34.787Z,1.65
2022-11-23T23:52:05.772Z,1.66
2022-11-23T23:54:35.168Z,1.99
2022-11-23T23:57:04.860Z,2.10
2022-11-23T23:59:34.021Z,1.89
